createdAt,value
2023-01-21T00:00:45.899Z,18.12
2023-01-21T00:03:49.010Z,19.35
2023-01-21T00:06:51.340Z,18.27
2023-01-21T00:09:54.740Z,17.80
2023-01-21T00:12:56.882Z,18.35
2023-01-21T00:15:59.754Z,18.02
2023-01-21T00:19:02.289Z,19.95
2023-01-21T00:22:05.179Z,19.55
2023-01-21T00:25:07.821Z,20.42
2023-01-21T00:28:11.041Z,21.80
2023-01-21T00:31:13.524Z,22.10
2023-01-21T00:34:17.281Z,22.05
2023-01-21T00:37:19.550Z,23.02
2023-01-21T00:40:22.292Z,22.48
2023-01-21T00:43:24.575Z,23.20
2023-01-21T00:46:27.727Z,22.60
2023-01-21T00:49:29.921Z,25.10
2023-01-21T00:52:32.434Z,24.98
2023-01-21T00:55:35.042Z,21.83
2023-01-21T00:58:38.150Z,28.25
2023-01-21T01:01:40.674Z,21.85
2023-01-21T01:04:43.400Z,19.10
2023-01-21T01:07:47.496Z,19.37
2023-01-21T01:10:50.112Z,20.65
2023-01-21T01:13:53.859Z,21.20
2023-01-21T01:16:56.338Z,19.95
2023-01-21T01:19:58.599Z,20.98
2023-01-21T01:23:01.228Z,16.73
2023-01-21T01:26:09.885Z,21.12
2023-01-21T01:29:13.571Z,19.98
2023-01-21T01:32:16.167Z,20.73
2023-01-21T01:35:18.976Z,17.83
2023-01-21T01:38:22.767Z,20.15
2023-01-21T01:41:29.532Z,20.65
2023-01-21T01:45:01.122Z,23.00
2023-01-21T01:48:06.331Z,20.35
2023-01-21T01:51:09.902Z,18.87
2023-01-21T01:54:16.935Z,21.23
2023-01-21T01:57:23.752Z,23.55
2023-01-21T02:00:27.611Z,23.00
2023-01-21T02:03:46.890Z,19.02
2023-01-21T02:06:53.203Z,19.92
2023-01-21T02:09:55.848Z,19.98
2023-01-21T02:12:58.447Z,20.55
2023-01-21T02:16:27.338Z,22.30
2023-01-21T02:20:18.591Z,15.73
2023-01-21T02:23:42.866Z,18.60
2023-01-21T02:27:13.334Z,16.02
2023-01-21T02:33:56.105Z,19.85
2023-01-21T02:37:21.786Z,19.08
2023-01-21T02:40:38.211Z,17.60
2023-01-21T02:44:07.958Z,16.98
2023-01-21T02:50:32.917Z,18.40
2023-01-21T02:53:36.202Z,16.85
2023-01-21T02:56:38.335Z,18.92
2023-01-21T02:59:46.254Z,17.55
2023-01-21T03:02:58.080Z,15.93
2023-01-21T03:06:10.647Z,16.87
2023-01-21T03:09:28.964Z,15.63
2023-01-21T03:12:46.781Z,16.15
2023-01-21T03:16:14.292Z,16.23
2023-01-21T03:19:19.040Z,16.55
2023-01-21T03:22:26.618Z,16.27
2023-01-21T03:25:32.508Z,17.65
2023-01-21T03:28:43.145Z,15.35
2023-01-21T03:31:50.223Z,14.05
2023-01-21T03:34:55.954Z,16.62
2023-01-21T03:38:08.025Z,17.90
2023-01-21T03:41:36.473Z,16.67
2023-01-21T03:44:39.621Z,16.35
2023-01-21T03:47:50.402Z,14.90
2023-01-21T03:50:59.033Z,17.05
2023-01-21T03:54:01.663Z,15.52
2023-01-21T03:57:04.474Z,19.12
2023-01-21T04:00:08.296Z,19.30
2023-01-21T04:03:11.156Z,21.20
2023-01-21T04:06:18.635Z,17.33
2023-01-21T04:09:21.251Z,19.73
2023-01-21T04:12:23.510Z,25.67
2023-01-21T04:15:26.641Z,27.52
2023-01-21T04:18:29.500Z,27.77
2023-01-21T04:21:32.403Z,19.92
2023-01-21T04:24:34.904Z,22.62
2023-01-21T04:27:37.452Z,20.75
2023-01-21T04:30:39.972Z,23.45
2023-01-21T04:33:42.759Z,26.75
2023-01-21T04:36:45.163Z,30.60
2023-01-21T04:39:48.031Z,31.50
2023-01-21T04:42:50.307Z,27.17
2023-01-21T04:45:53.357Z,29.65
2023-01-21T04:48:55.877Z,27.98
2023-01-21T04:51:58.501Z,27.40
2023-01-21T04:55:00.643Z,27.87
2023-01-21T04:58:03.794Z,25.48
2023-01-21T05:01:06.116Z,25.62
2023-01-21T05:04:08.751Z,26.62
2023-01-21T05:07:11.929Z,26.23
2023-01-21T05:10:18.434Z,30.00
2023-01-21T05:13:20.738Z,27.48
2023-01-21T05:16:23.370Z,26.10
2023-01-21T05:19:25.616Z,32.53
2023-01-21T05:22:28.147Z,26.48
2023-01-21T05:25:30.422Z,26.40
2023-01-21T05:28:33.020Z,27.37
2023-01-21T05:31:35.856Z,27.02
2023-01-21T05:34:39.238Z,24.85
2023-01-21T05:37:41.755Z,25.40
2023-01-21T05:40:44.258Z,29.23
2023-01-21T05:43:46.440Z,27.30
2023-01-21T05:46:48.954Z,26.23
2023-01-21T05:49:51.255Z,28.02
2023-01-21T05:52:53.783Z,28.98
2023-01-21T05:55:56.962Z,25.27
2023-01-21T05:58:59.752Z,24.98
2023-01-21T06:02:02.331Z,25.27
2023-01-21T06:05:05.281Z,26.52
2023-01-21T06:08:08.375Z,24.20
2023-01-21T06:11:10.836Z,26.45
2023-01-21T06:14:13.105Z,25.00
2023-01-21T06:17:15.563Z,25.85
2023-01-21T06:20:18.183Z,25.52
2023-01-21T06:23:21.585Z,23.70
2023-01-21T06:26:26.175Z,18.50
2023-01-21T06:29:30.256Z,19.83
2023-01-21T06:32:33.693Z,17.98
2023-01-21T06:35:37.147Z,19.45
2023-01-21T06:38:39.658Z,15.77
2023-01-21T06:41:42.626Z,15.68
2023-01-21T06:44:45.645Z,16.62
2023-01-21T06:47:48.470Z,11.45
2023-01-21T06:50:50.810Z,16.12
2023-01-21T06:53:54.105Z,13.25
2023-01-21T06:56:57.050Z,14.43
2023-01-21T06:59:59.979Z,14.02
2023-01-21T07:03:02.268Z,15.55
2023-01-21T07:06:05.246Z,16.90
2023-01-21T07:09:08.365Z,13.73
2023-01-21T07:12:11.275Z,14.07
2023-01-21T07:15:13.584Z,16.77
2023-01-21T07:18:16.099Z,17.15
2023-01-21T07:21:18.820Z,15.27
2023-01-21T07:24:22.140Z,15.90
2023-01-21T07:27:24.766Z,14.93
2023-01-21T07:30:27.824Z,15.02
2023-01-21T07:33:30.347Z,14.18
2023-01-21T07:36:33.095Z,15.15
2023-01-21T07:39:35.401Z,14.55
2023-01-21T07:42:38.282Z,14.93
2023-01-21T07:45:40.486Z,16.35
2023-01-21T07:48:43.445Z,17.30
2023-01-21T07:51:47.155Z,13.68
2023-01-21T07:54:49.905Z,10.63
2023-01-21T07:57:52.186Z,13.65
2023-01-21T08:00:54.778Z,16.48
2023-01-21T08:03:58.859Z,14.27
2023-01-21T08:07:06.869Z,14.35
2023-01-21T08:10:10.509Z,11.93
2023-01-21T08:13:13.058Z,14.77
2023-01-21T08:16:15.926Z,16.80
2023-01-21T08:19:18.088Z,19.67
2023-01-21T08:22:20.574Z,14.93
2023-01-21T08:25:22.740Z,19.02
2023-01-21T08:28:25.218Z,19.87
2023-01-21T08:31:27.463Z,19.98
2023-01-21T08:34:30.049Z,19.27
2023-01-21T08:37:32.231Z,17.42
2023-01-21T08:40:35.019Z,16.35
2023-01-21T08:43:37.363Z,20.60
2023-01-21T08:46:40.000Z,17.35
2023-01-21T08:49:42.151Z,15.48
2023-01-21T08:52:51.304Z,17.42
2023-01-21T08:55:53.639Z,15.73
2023-01-21T08:58:57.552Z,17.80
2023-01-21T09:01:59.916Z,15.65
2023-01-21T09:05:02.411Z,19.02
2023-01-21T09:08:04.781Z,18.77
2023-01-21T09:11:09.188Z,17.98
2023-01-21T09:14:11.998Z,16.73
2023-01-21T09:17:14.557Z,17.37
2023-01-21T09:20:17.195Z,18.65
2023-01-21T09:23:25.975Z,19.02
2023-01-21T09:26:28.291Z,17.23
2023-01-21T09:29:30.833Z,17.02
2023-01-21T09:32:33.387Z,20.58
2023-01-21T09:35:35.859Z,21.92
2023-01-21T09:38:38.019Z,20.00
2023-01-21T09:41:44.267Z,19.87
2023-01-21T09:44:50.499Z,16.75
2023-01-21T09:47:56.619Z,23.27
2023-01-21T09:51:03.212Z,19.65
2023-01-21T09:54:15.487Z,16.02
2023-01-21T09:57:23.562Z,17.05
2023-01-21T10:00:32.026Z,19.27
2023-01-21T10:03:40.883Z,17.55
2023-01-21T10:07:01.958Z,18.40
2023-01-21T10:10:24.759Z,18.12
2023-01-21T10:13:46.787Z,19.67
2023-01-21T10:17:16.766Z,18.75
2023-01-21T10:20:25.843Z,22.75
2023-01-21T10:23:32.170Z,15.18
2023-01-21T10:26:35.556Z,18.23
2023-01-21T10:29:41.833Z,19.52
2023-01-21T10:32:45.443Z,17.55
2023-01-21T10:35:56.933Z,17.87
2023-01-21T10:39:12.449Z,18.00
2023-01-21T10:42:19.713Z,21.87
2023-01-21T10:45:45.025Z,19.35
2023-01-21T10:48:58.145Z,18.50
2023-01-21T10:52:17.080Z,16.23
2023-01-21T10:55:49.240Z,21.10
2023-01-21T10:59:00.835Z,17.83
2023-01-21T11:02:33.788Z,19.15
2023-01-21T11:05:38.371Z,19.15
2023-01-21T11:08:45.159Z,16.30
2023-01-21T11:11:47.733Z,16.65
2023-01-21T11:15:07.689Z,18.37
2023-01-21T11:21:33.884Z,21.58
2023-01-21T11:24:48.642Z,16.87
2023-01-21T11:27:51.131Z,23.48
2023-01-21T11:31:26.524Z,22.55
2023-01-21T11:34:29.973Z,17.67
2023-01-21T11:37:33.411Z,20.48
2023-01-21T11:40:36.227Z,19.08
2023-01-21T11:43:47.873Z,15.90
2023-01-21T11:46:51.212Z,21.95
2023-01-21T11:49:54.944Z,18.55
2023-01-21T11:53:07.042Z,17.55
2023-01-21T11:56:10.311Z,18.92
2023-01-21T11:59:35.596Z,19.55
2023-01-21T12:02:46.957Z,19.65
2023-01-21T12:05:52.057Z,24.12
2023-01-21T12:08:58.534Z,21.85
2023-01-21T12:12:14.687Z,18.98
2023-01-21T12:15:40.079Z,22.75
2023-01-21T12:19:10.663Z,24.90
2023-01-21T12:22:39.402Z,22.77
2023-01-21T12:25:55.212Z,27.40
2023-01-21T12:29:07.552Z,21.23
2023-01-21T12:32:29.388Z,23.25
2023-01-21T12:36:15.648Z,23.12
2023-01-21T12:39:34.390Z,18.48
2023-01-21T12:42:43.471Z,19.70
2023-01-21T12:45:55.611Z,22.05
2023-01-21T12:49:47.130Z,23.73
2023-01-21T12:53:02.229Z,20.40
2023-01-21T12:56:12.328Z,22.40
2023-01-21T12:59:33.794Z,17.73
2023-01-21T13:03:04.404Z,17.58
2023-01-21T13:06:54.257Z,18.00
2023-01-21T13:10:09.629Z,16.87
2023-01-21T13:13:29.896Z,17.50
2023-01-21T13:16:35.815Z,15.20
2023-01-21T13:19:38.731Z,14.90
2023-01-21T13:22:51.859Z,13.73
2023-01-21T13:26:16.124Z,15.73
2023-01-21T13:29:26.547Z,13.18
2023-01-21T13:32:56.251Z,21.23
2023-01-21T13:36:26.502Z,19.73
2023-01-21T13:39:42.344Z,17.17
2023-01-21T13:42:44.446Z,19.02
2023-01-21T13:46:02.329Z,18.95
2023-01-21T13:49:16.498Z,15.30
2023-01-21T13:52:32.856Z,18.08
2023-01-21T13:55:40.968Z,15.40
2023-01-21T13:59:01.013Z,13.95
2023-01-21T14:02:14.027Z,14.43
2023-01-21T14:05:39.322Z,11.30
2023-01-21T14:08:45.549Z,16.50
2023-01-21T14:11:53.376Z,13.98
2023-01-21T14:15:12.952Z,9.98
2023-01-21T14:18:46.598Z,15.52
2023-01-21T14:22:27.408Z,12.30
2023-01-21T14:25:48.478Z,13.48
2023-01-21T14:29:01.635Z,14.93
2023-01-21T14:32:16.049Z,12.15
2023-01-21T14:35:36.335Z,12.95
2023-01-21T14:38:56.601Z,13.10
2023-01-21T14:42:09.679Z,11.55
2023-01-21T14:45:14.676Z,14.20
2023-01-21T14:48:39.487Z,12.57
2023-01-21T14:51:47.225Z,6.85
2023-01-21T14:54:49.610Z,7.65
2023-01-21T14:57:53.224Z,9.75
2023-01-21T15:00:55.490Z,9.75
2023-01-21T15:04:02.631Z,8.73
2023-01-21T15:07:18.481Z,10.40
2023-01-21T15:10:32.165Z,8.30
2023-01-21T15:13:34.569Z,9.27
2023-01-21T15:16:40.176Z,6.45
2023-01-21T15:19:42.826Z,8.48
2023-01-21T15:22:48.142Z,6.15
2023-01-21T15:26:12.220Z,8.57
2023-01-21T15:29:33.994Z,6.37
2023-01-21T15:32:39.550Z,9.07
2023-01-21T15:35:43.566Z,6.68
2023-01-21T15:38:46.515Z,5.97
2023-01-21T15:42:11.021Z,5.70
2023-01-21T15:45:24.095Z,8.10
2023-01-21T15:48:44.547Z,6.93
2023-01-21T15:52:08.853Z,9.52
2023-01-21T15:55:58.942Z,12.18
2023-01-21T15:59:22.907Z,9.23
2023-01-21T16:02:32.370Z,12.18
2023-01-21T16:05:53.366Z,9.23
2023-01-21T16:09:36.288Z,8.52
2023-01-21T16:12:54.383Z,12.18
2023-01-21T16:16:14.698Z,19.20
2023-01-21T16:19:31.499Z,17.90
2023-01-21T16:22:36.531Z,13.65
2023-01-21T16:25:47.176Z,11.73
2023-01-21T16:28:49.688Z,11.85
2023-01-21T16:32:01.011Z,11.27
2023-01-21T16:35:04.648Z,11.95
2023-01-21T16:38:07.279Z,16.20
2023-01-21T16:41:15.444Z,15.13
2023-01-21T16:44:18.323Z,13.07
2023-01-21T16:47:28.872Z,14.55
2023-01-21T16:50:32.963Z,10.75
2023-01-21T16:53:35.239Z,11.05
2023-01-21T16:56:47.222Z,12.23
2023-01-21T16:59:49.612Z,13.43
2023-01-21T17:02:52.563Z,11.07
2023-01-21T17:05:59.188Z,14.60
2023-01-21T17:09:05.187Z,10.70
2023-01-21T17:12:15.598Z,12.00
2023-01-21T17:15:28.712Z,9.45
2023-01-21T17:18:36.525Z,8.20
2023-01-21T17:21:45.243Z,11.40
2023-01-21T17:25:01.755Z,12.57
2023-01-21T17:28:29.490Z,10.20
2023-01-21T17:31:42.694Z,13.62
2023-01-21T17:35:04.621Z,11.30
2023-01-21T17:38:30.238Z,9.27
2023-01-21T17:41:37.552Z,10.57
2023-01-21T17:44:40.133Z,9.65
2023-01-21T17:48:06.744Z,11.75
2023-01-21T17:51:08.064Z,12.27
2023-01-21T17:54:21.835Z,8.73
2023-01-21T17:57:35.536Z,11.20
2023-01-21T18:00:44.265Z,10.85
2023-01-21T18:03:46.889Z,9.05
2023-01-21T18:06:50.915Z,12.60
2023-01-21T18:09:54.653Z,12.98
2023-01-21T18:12:58.363Z,11.43
2023-01-21T18:16:01.074Z,11.05
2023-01-21T18:19:03.448Z,8.73
2023-01-21T18:22:07.328Z,11.45
2023-01-21T18:25:11.932Z,11.30
2023-01-21T18:28:19.350Z,11.93
2023-01-21T18:31:22.707Z,13.40
2023-01-21T18:34:25.962Z,9.63
2023-01-21T18:37:28.421Z,14.23
2023-01-21T18:40:31.010Z,11.88
2023-01-21T18:43:33.251Z,14.95
2023-01-21T18:46:41.471Z,14.50
2023-01-21T18:49:44.793Z,14.63
2023-01-21T18:52:47.984Z,13.32
2023-01-21T18:55:53.839Z,11.73
2023-01-21T18:58:56.855Z,16.23
2023-01-21T19:01:59.403Z,12.95
2023-01-21T19:05:01.949Z,14.52
2023-01-21T19:08:06.181Z,15.90
2023-01-21T19:11:09.440Z,14.20
2023-01-21T19:14:12.031Z,13.50
2023-01-21T19:17:26.478Z,14.02
2023-01-21T19:20:29.741Z,15.85
2023-01-21T19:23:32.518Z,15.05
2023-01-21T19:26:35.739Z,13.55
2023-01-21T19:29:38.256Z,13.95
2023-01-21T19:32:40.577Z,12.68
2023-01-21T19:35:45.100Z,16.45
2023-01-21T19:38:53.375Z,14.65
2023-01-21T19:42:07.603Z,12.73
2023-01-21T19:45:11.487Z,12.35
2023-01-21T19:48:22.029Z,18.25
2023-01-21T19:51:24.413Z,14.87
2023-01-21T19:54:27.052Z,14.85
2023-01-21T19:57:32.859Z,14.55
2023-01-21T20:00:36.451Z,13.48
2023-01-21T20:03:48.058Z,16.37
2023-01-21T20:06:57.507Z,17.20
2023-01-21T20:10:00.137Z,14.93
2023-01-21T20:13:02.808Z,13.52
2023-01-21T20:16:20.995Z,12.15
2023-01-21T20:19:23.500Z,13.25
2023-01-21T20:22:26.433Z,13.13
2023-01-21T20:25:36.511Z,15.23
2023-01-21T20:28:46.870Z,13.02
2023-01-21T20:31:49.206Z,10.85
2023-01-21T20:34:51.865Z,15.63
2023-01-21T20:37:55.792Z,16.15
2023-01-21T20:40:59.323Z,11.35
2023-01-21T20:44:03.575Z,13.38
2023-01-21T20:47:06.239Z,13.77
2023-01-21T20:50:31.787Z,14.23
2023-01-21T20:53:34.483Z,13.80
2023-01-21T20:56:38.318Z,13.73
2023-01-21T20:59:40.915Z,14.48
2023-01-21T21:02:43.101Z,15.73
2023-01-21T21:05:47.750Z,16.00
2023-01-21T21:08:50.776Z,11.10
2023-01-21T21:11:53.328Z,16.60
2023-01-21T21:14:55.480Z,14.68
2023-01-21T21:17:58.618Z,13.05
2023-01-21T21:21:00.972Z,13.48
2023-01-21T21:24:06.509Z,17.17
2023-01-21T21:27:12.013Z,17.65
2023-01-21T21:30:30.176Z,15.20
2023-01-21T21:33:33.103Z,13.20
2023-01-21T21:36:35.666Z,14.73
2023-01-21T21:39:37.885Z,18.15
2023-01-21T21:42:59.724Z,13.50
2023-01-21T21:46:28.003Z,16.25
2023-01-21T21:49:31.260Z,14.50
2023-01-21T21:52:33.800Z,13.27
2023-01-21T21:55:36.394Z,15.80
2023-01-21T21:58:38.966Z,20.58
2023-01-21T22:01:43.030Z,11.25
2023-01-21T22:04:45.678Z,15.20
2023-01-21T22:07:47.816Z,13.93
2023-01-21T22:10:57.531Z,10.07
2023-01-21T22:14:03.754Z,15.02
2023-01-21T22:17:08.555Z,14.90
2023-01-21T22:20:11.766Z,11.98
2023-01-21T22:23:14.937Z,15.52
2023-01-21T22:26:22.652Z,13.00
2023-01-21T22:29:25.531Z,11.20
2023-01-21T22:32:30.762Z,16.02
2023-01-21T22:35:34.515Z,12.50
2023-01-21T22:38:40.317Z,12.57
2023-01-21T22:41:43.605Z,10.90
2023-01-21T22:44:45.762Z,8.80
2023-01-21T22:47:48.285Z,10.82
2023-01-21T22:50:55.432Z,9.88
2023-01-21T22:54:00.346Z,11.00
2023-01-21T22:57:03.092Z,11.60
2023-01-21T23:00:09.077Z,10.73
2023-01-21T23:03:12.297Z,11.85
2023-01-21T23:06:14.945Z,9.23
2023-01-21T23:09:17.676Z,9.77
2023-01-21T23:12:20.286Z,10.20
2023-01-21T23:15:23.519Z,9.82
2023-01-21T23:18:28.161Z,9.23
2023-01-21T23:21:30.328Z,8.00
2023-01-21T23:24:34.117Z,11.30
2023-01-21T23:27:36.423Z,10.57
2023-01-21T23:30:39.077Z,9.05
2023-01-21T23:33:41.826Z,5.85
2023-01-21T23:36:44.604Z,10.80
2023-01-21T23:39:46.948Z,8.60
2023-01-21T23:42:50.637Z,10.38
2023-01-21T23:45:54.000Z,9.52
2023-01-21T23:48:56.632Z,7.20
2023-01-21T23:51:59.099Z,7.60
2023-01-21T23:55:01.568Z,8.45
2023-01-21T23:58:03.915Z,7.85
